sensor_id;sensor_type;location;lat;lon;timestamp;pressure;altitude;pressure_sealevel;temperature;humidity
13690;BME280;6917;52.194;9.894;2023-06-26T00:01:15;100261.59;;;23.29;nan
13690;BME280;6917;52.194;9.894;2023-06-26T00:03:40;100265.22;;;23.15;nan
13690;BME280;6917;52.194;9.894;2023-06-26T00:06:05;100264.44;;;23.07;nan
13690;BME280;6917;52.194;9.894;2023-06-26T00:08:31;100266.03;;;23.05;nan
13690;BME280;6917;52.194;9.894;2023-06-26T00:10:56;100258.06;;;23.00;nan
13690;BME280;6917;52.194;9.894;2023-06-26T00:13:22;100254.91;;;22.91;nan
13690;BME280;6917;52.194;9.894;2023-06-26T00:15:48;100251.72;;;22.96;nan
13690;BME280;6917;52.194;9.894;2023-06-26T00:18:13;100249.31;;;22.80;nan
13690;BME280;6917;52.194;9.894;2023-06-26T00:20:39;100256.88;;;22.69;nan
13690;BME280;6917;52.194;9.894;2023-06-26T00:23:04;100260.06;;;22.46;nan
13690;BME280;6917;52.194;9.894;2023-06-26T00:25:32;100258.88;;;22.43;nan
13690;BME280;6917;52.194;9.894;2023-06-26T00:27:58;100262.03;;;22.35;nan
13690;BME280;6917;52.194;9.894;2023-06-26T00:30:23;100258.84;;;22.33;nan
13690;BME280;6917;52.194;9.894;2023-06-26T00:32:48;100255.63;;;22.20;nan
13690;BME280;6917;52.194;9.894;2023-06-26T00:35:14;100266.38;;;22.21;nan
13690;BME280;6917;52.194;9.894;2023-06-26T00:37:39;100273.53;;;22.15;nan
13690;BME280;6917;52.194;9.894;2023-06-26T00:40:05;100271.06;;;22.00;nan
13690;BME280;6917;52.194;9.894;2023-06-26T00:42:30;100267.41;;;21.81;nan
13690;BME280;6917;52.194;9.894;2023-06-26T00:44:56;100257.13;;;21.89;nan
13690;BME280;6917;52.194;9.894;2023-06-26T00:47:21;100246.03;;;22.00;nan
13690;BME280;6917;52.194;9.894;2023-06-26T00:49:47;100253.94;;;21.97;nan
13690;BME280;6917;52.194;9.894;2023-06-26T00:52:12;100250.84;;;22.06;nan
13690;BME280;6917;52.194;9.894;2023-06-26T00:54:38;100242.88;;;22.12;nan
13690;BME280;6917;52.194;9.894;2023-06-26T00:57:04;100240.91;;;22.09;nan
13690;BME280;6917;52.194;9.894;2023-06-26T00:59:29;100243.22;;;21.92;nan
13690;BME280;6917;52.194;9.894;2023-06-26T01:01:54;100242.84;;;22.01;nan
13690;BME280;6917;52.194;9.894;2023-06-26T01:04:20;100241.22;;;21.86;nan
13690;BME280;6917;52.194;9.894;2023-06-26T01:06:46;100242.38;;;21.81;nan
13690;BME280;6917;52.194;9.894;2023-06-26T01:09:17;100224.53;;;21.89;nan
13690;BME280;6917;52.194;9.894;2023-06-26T01:11:46;100230.09;;;21.89;nan
13690;BME280;6917;52.194;9.894;2023-06-26T01:14:12;100231.28;;;21.88;nan
13690;BME280;6917;52.194;9.894;2023-06-26T01:16:38;100224.91;;;21.84;nan
13690;BME280;6917;52.194;9.894;2023-06-26T01:19:19;100227.69;;;21.77;nan
13690;BME280;6917;52.194;9.894;2023-06-26T01:21:53;100220.53;;;21.73;nan
13690;BME280;6917;52.194;9.894;2023-06-26T01:24:22;100228.03;;;21.61;nan
13690;BME280;6917;52.194;9.894;2023-06-26T01:26:53;100228.38;;;21.53;nan
13690;BME280;6917;52.194;9.894;2023-06-26T01:29:21;100223.56;;;21.39;nan
13690;BME280;6917;52.194;9.894;2023-06-26T01:31:48;100229.91;;;21.36;nan
13690;BME280;6917;52.194;9.894;2023-06-26T01:34:18;100219.03;;;21.13;nan
13690;BME280;6917;52.194;9.894;2023-06-26T01:37:00;100219.38;;;21.04;nan
13690;BME280;6917;52.194;9.894;2023-06-26T01:39:25;100224.81;;;20.83;nan
13690;BME280;6917;52.194;9.894;2023-06-26T01:41:51;100214.72;;;20.61;nan
13690;BME280;6917;52.194;9.894;2023-06-26T01:44:26;100218.66;;;20.56;nan
13690;BME280;6917;52.194;9.894;2023-06-26T01:47:00;100217.75;;;20.45;nan
13690;BME280;6917;52.194;9.894;2023-06-26T01:52:21;100212.03;;;20.27;nan
13690;BME280;6917;52.194;9.894;2023-06-26T01:55:09;100207.53;;;20.12;nan
13690;BME280;6917;52.194;9.894;2023-06-26T01:57:38;100208.38;;;20.19;nan
13690;BME280;6917;52.194;9.894;2023-06-26T02:00:05;100206.72;;;20.11;nan
13690;BME280;6917;52.194;9.894;2023-06-26T02:02:31;100200.81;;;20.13;nan
13690;BME280;6917;52.194;9.894;2023-06-26T02:04:59;100201.63;;;20.17;nan
13690;BME280;6917;52.194;9.894;2023-06-26T02:07:24;100201.22;;;20.18;nan
13690;BME280;6917;52.194;9.894;2023-06-26T02:09:50;100198.41;;;20.11;nan
13690;BME280;6917;52.194;9.894;2023-06-26T02:12:15;100190.94;;;20.19;nan
13690;BME280;6917;52.194;9.894;2023-06-26T02:14:40;100189.97;;;20.41;nan
13690;BME280;6917;52.194;9.894;2023-06-26T02:17:08;100178.19;;;20.55;nan
13690;BME280;6917;52.194;9.894;2023-06-26T02:19:34;100166.75;;;20.67;nan
13690;BME280;6917;52.194;9.894;2023-06-26T02:21:59;100168.41;;;20.75;nan
13690;BME280;6917;52.194;9.894;2023-06-26T02:24:24;100169.97;;;20.69;nan
13690;BME280;6917;52.194;9.894;2023-06-26T02:26:52;100186.56;;;20.62;nan
13690;BME280;6917;52.194;9.894;2023-06-26T02:29:17;100176.63;;;20.61;nan
13690;BME280;6917;52.194;9.894;2023-06-26T02:31:43;100175.44;;;20.59;nan
13690;BME280;6917;52.194;9.894;2023-06-26T02:34:08;100171.94;;;20.69;nan
13690;BME280;6917;52.194;9.894;2023-06-26T02:36:33;100164.44;;;20.76;nan
13690;BME280;6917;52.194;9.894;2023-06-26T02:38:58;100169.19;;;20.72;nan
13690;BME280;6917;52.194;9.894;2023-06-26T02:41:24;100164.44;;;20.76;nan
13690;BME280;6917;52.194;9.894;2023-06-26T02:43:49;100161.66;;;20.76;nan
13690;BME280;6917;52.194;9.894;2023-06-26T02:46:17;100154.56;;;20.83;nan
13690;BME280;6917;52.194;9.894;2023-06-26T02:48:43;100157.03;;;20.98;nan
13690;BME280;6917;52.194;9.894;2023-06-26T02:51:08;100148.34;;;21.07;nan
13690;BME280;6917;52.194;9.894;2023-06-26T02:53:33;100140.06;;;21.14;nan
13690;BME280;6917;52.194;9.894;2023-06-26T02:55:59;100146.50;;;21.32;nan
13690;BME280;6917;52.194;9.894;2023-06-26T02:58:24;100133.09;;;21.56;nan
13690;BME280;6917;52.194;9.894;2023-06-26T03:00:50;100130.34;;;21.70;nan
13690;BME280;6917;52.194;9.894;2023-06-26T03:03:15;100129.94;;;21.79;nan
13690;BME280;6917;52.194;9.894;2023-06-26T03:05:41;100131.91;;;21.67;nan
13690;BME280;6917;52.194;9.894;2023-06-26T03:08:06;100122.38;;;21.68;nan
13690;BME280;6917;52.194;9.894;2023-06-26T03:10:31;100118.78;;;21.68;nan
13690;BME280;6917;52.194;9.894;2023-06-26T03:12:57;100113.22;;;21.64;nan
13690;BME280;6917;52.194;9.894;2023-06-26T03:15:28;100119.22;;;21.70;nan
13690;BME280;6917;52.194;9.894;2023-06-26T03:17:53;100122.72;;;21.53;nan
13690;BME280;6917;52.194;9.894;2023-06-26T03:20:21;100114.00;;;21.44;nan
13690;BME280;6917;52.194;9.894;2023-06-26T03:22:46;100127.06;;;21.39;nan
13690;BME280;6917;52.194;9.894;2023-06-26T03:25:12;100138.97;;;21.29;nan
13690;BME280;6917;52.194;9.894;2023-06-26T03:27:37;100126.97;;;21.18;nan
13690;BME280;6917;52.194;9.894;2023-06-26T03:30:02;100127.34;;;21.13;nan
13690;BME280;6917;52.194;9.894;2023-06-26T03:32:28;100128.84;;;20.96;nan
13690;BME280;6917;52.194;9.894;2023-06-26T03:34:53;100130.75;;;20.82;nan
13690;BME280;6917;52.194;9.894;2023-06-26T03:37:18;100120.09;;;20.87;nan
13690;BME280;6917;52.194;9.894;2023-06-26T03:39:44;100126.91;;;21.00;nan
13690;BME280;6917;52.194;9.894;2023-06-26T03:42:09;100118.97;;;21.09;nan
13690;BME280;6917;52.194;9.894;2023-06-26T03:44:34;100115.47;;;21.23;nan
13690;BME280;6917;52.194;9.894;2023-06-26T03:46:59;100112.69;;;21.23;nan
13690;BME280;6917;52.194;9.894;2023-06-26T03:49:25;100115.13;;;21.28;nan
13690;BME280;6917;52.194;9.894;2023-06-26T03:51:50;100113.19;;;21.43;nan
13690;BME280;6917;52.194;9.894;2023-06-26T03:54:16;100114.81;;;21.58;nan
13690;BME280;6917;52.194;9.894;2023-06-26T03:56:41;100103.66;;;21.55;nan
13690;BME280;6917;52.194;9.894;2023-06-26T03:59:06;100109.66;;;21.67;nan
13690;BME280;6917;52.194;9.894;2023-06-26T04:01:32;100108.50;;;21.76;nan
13690;BME280;6917;52.194;9.894;2023-06-26T04:03:57;100099.75;;;21.88;nan
13690;BME280;6917;52.194;9.894;2023-06-26T04:06:22;100102.53;;;21.91;nan
13690;BME280;6917;52.194;9.894;2023-06-26T04:08:48;100102.94;;;21.97;nan
13690;BME280;6917;52.194;9.894;2023-06-26T04:11:13;100104.97;;;22.07;nan
13690;BME280;6917;52.194;9.894;2023-06-26T04:13:38;100101.34;;;22.03;nan
13690;BME280;6917;52.194;9.894;2023-06-26T04:16:04;100098.19;;;22.19;nan
13690;BME280;6917;52.194;9.894;2023-06-26T04:18:29;100099.78;;;22.27;nan
13690;BME280;6917;52.194;9.894;2023-06-26T04:21:08;100090.25;;;22.32;nan
13690;BME280;6917;52.194;9.894;2023-06-26T04:23:34;100096.19;;;22.37;nan
13690;BME280;6917;52.194;9.894;2023-06-26T04:26:00;100091.03;;;22.43;nan
13690;BME280;6917;52.194;9.894;2023-06-26T04:28:25;100084.66;;;22.46;nan
13690;BME280;6917;52.194;9.894;2023-06-26T04:30:51;100072.34;;;22.22;nan
13690;BME280;6917;52.194;9.894;2023-06-26T04:33:16;100072.25;;;22.65;nan
13690;BME280;6917;52.194;9.894;2023-06-26T04:35:41;100070.28;;;22.65;nan
13690;BME280;6917;52.194;9.894;2023-06-26T04:38:09;100065.53;;;22.51;nan
13690;BME280;6917;52.194;9.894;2023-06-26T04:40:35;100070.25;;;22.72;nan
13690;BME280;6917;52.194;9.894;2023-06-26T04:43:00;100067.06;;;22.70;nan
13690;BME280;6917;52.194;9.894;2023-06-26T04:45:25;100070.63;;;22.89;nan
13690;BME280;6917;52.194;9.894;2023-06-26T04:47:51;100061.84;;;22.94;nan
13690;BME280;6917;52.194;9.894;2023-06-26T04:50:16;100057.44;;;23.03;nan
13690;BME280;6917;52.194;9.894;2023-06-26T04:52:43;100056.56;;;23.13;nan
13690;BME280;6917;52.194;9.894;2023-06-26T04:55:09;100060.53;;;23.20;nan
13690;BME280;6917;52.194;9.894;2023-06-26T04:57:34;100048.53;;;23.30;nan
13690;BME280;6917;52.194;9.894;2023-06-26T04:59:59;100046.91;;;23.29;nan
13690;BME280;6917;52.194;9.894;2023-06-26T05:02:25;100049.31;;;23.30;nan
13690;BME280;6917;52.194;9.894;2023-06-26T05:04:51;100052.50;;;23.32;nan
13690;BME280;6917;52.194;9.894;2023-06-26T05:07:17;100042.16;;;23.29;nan
13690;BME280;6917;52.194;9.894;2023-06-26T05:09:42;100044.44;;;23.41;nan
13690;BME280;6917;52.194;9.894;2023-06-26T05:12:08;100041.72;;;23.34;nan
13690;BME280;6917;52.194;9.894;2023-06-26T05:14:33;100036.50;;;23.40;nan
13690;BME280;6917;52.194;9.894;2023-06-26T05:16:58;100040.06;;;23.44;nan
13690;BME280;6917;52.194;9.894;2023-06-26T05:19:24;100038.88;;;23.45;nan
13690;BME280;6917;52.194;9.894;2023-06-26T05:21:50;100043.97;;;23.57;nan
13690;BME280;6917;52.194;9.894;2023-06-26T05:24:16;100036.78;;;23.56;nan
13690;BME280;6917;52.194;9.894;2023-06-26T05:26:42;100033.97;;;23.63;nan
13690;BME280;6917;52.194;9.894;2023-06-26T05:29:08;100026.75;;;23.69;nan
13690;BME280;6917;52.194;9.894;2023-06-26T05:31:35;100023.59;;;23.67;nan
13690;BME280;6917;52.194;9.894;2023-06-26T05:34:05;100025.53;;;23.70;nan
13690;BME280;6917;52.194;9.894;2023-06-26T05:36:33;100020.38;;;23.72;nan
13690;BME280;6917;52.194;9.894;2023-06-26T05:38:59;100016.31;;;23.81;nan
13690;BME280;6917;52.194;9.894;2023-06-26T05:41:25;100022.34;;;23.72;nan
13690;BME280;6917;52.194;9.894;2023-06-26T05:43:50;100008.75;;;23.78;nan
13690;BME280;6917;52.194;9.894;2023-06-26T05:46:15;100018.72;;;23.79;nan
13690;BME280;6917;52.194;9.894;2023-06-26T05:48:41;100006.69;;;23.89;nan
13690;BME280;6917;52.194;9.894;2023-06-26T05:51:07;100017.38;;;23.94;nan
13690;BME280;6917;52.194;9.894;2023-06-26T05:53:33;100011.84;;;23.90;nan
13690;BME280;6917;52.194;9.894;2023-06-26T05:55:58;100019.44;;;23.86;nan
13690;BME280;6917;52.194;9.894;2023-06-26T05:58:26;100011.81;;;23.94;nan
13690;BME280;6917;52.194;9.894;2023-06-26T06:00:52;100006.63;;;23.92;nan
13690;BME280;6917;52.194;9.894;2023-06-26T06:03:18;100011.06;;;23.90;nan
13690;BME280;6917;52.194;9.894;2023-06-26T06:05:43;100015.06;;;23.89;nan
13690;BME280;6917;52.194;9.894;2023-06-26T06:08:08;100016.97;;;23.95;nan
13690;BME280;6917;52.194;9.894;2023-06-26T06:10:34;100014.91;;;24.03;nan
13690;BME280;6917;52.194;9.894;2023-06-26T06:12:59;100012.88;;;24.07;nan
13690;BME280;6917;52.194;9.894;2023-06-26T06:15:25;100011.22;;;24.13;nan
13690;BME280;6917;52.194;9.894;2023-06-26T06:17:50;100015.16;;;24.16;nan
13690;BME280;6917;52.194;9.894;2023-06-26T06:20:16;100014.31;;;24.22;nan
13690;BME280;6917;52.194;9.894;2023-06-26T06:22:42;100011.47;;;24.29;nan
13690;BME280;6917;52.194;9.894;2023-06-26T06:25:08;100011.78;;;24.39;nan
13690;BME280;6917;52.194;9.894;2023-06-26T06:27:33;100012.09;;;24.48;nan
13690;BME280;6917;52.194;9.894;2023-06-26T06:29:59;100018.25;;;24.66;nan
13690;BME280;6917;52.194;9.894;2023-06-26T06:32:24;100012.47;;;24.80;nan
13690;BME280;6917;52.194;9.894;2023-06-26T06:34:49;100018.22;;;25.00;nan
13690;BME280;6917;52.194;9.894;2023-06-26T06:37:14;100014.13;;;25.08;nan
13690;BME280;6917;52.194;9.894;2023-06-26T06:39:40;100009.28;;;25.12;nan
13690;BME280;6917;52.194;9.894;2023-06-26T06:42:05;100011.94;;;25.23;nan
13690;BME280;6917;52.194;9.894;2023-06-26T06:44:30;100010.00;;;25.16;nan
13690;BME280;6917;52.194;9.894;2023-06-26T06:46:56;100019.84;;;25.28;nan
13690;BME280;6917;52.194;9.894;2023-06-26T06:49:21;100000.44;;;25.17;nan
13690;BME280;6917;52.194;9.894;2023-06-26T06:51:46;100001.91;;;25.26;nan
13690;BME280;6917;52.194;9.894;2023-06-26T06:54:15;99998.00;;;25.19;nan
13690;BME280;6917;52.194;9.894;2023-06-26T06:56:41;100002.09;;;25.38;nan
13690;BME280;6917;52.194;9.894;2023-06-26T06:59:06;100000.03;;;25.42;nan
13690;BME280;6917;52.194;9.894;2023-06-26T07:01:32;100004.69;;;25.52;nan
13690;BME280;6917;52.194;9.894;2023-06-26T07:03:57;100000.59;;;25.57;nan
13690;BME280;6917;52.194;9.894;2023-06-26T07:06:22;100003.47;;;25.54;nan
13690;BME280;6917;52.194;9.894;2023-06-26T07:08:48;100003.19;;;25.44;nan
13690;BME280;6917;52.194;9.894;2023-06-26T07:11:13;99992.44;;;25.43;nan
13690;BME280;6917;52.194;9.894;2023-06-26T07:13:38;100003.25;;;25.41;nan
13690;BME280;6917;52.194;9.894;2023-06-26T07:16:04;100006.41;;;25.46;nan
13690;BME280;6917;52.194;9.894;2023-06-26T07:18:29;100001.63;;;25.43;nan
13690;BME280;6917;52.194;9.894;2023-06-26T07:20:54;100005.31;;;25.64;nan
13690;BME280;6917;52.194;9.894;2023-06-26T07:23:19;100011.91;;;25.77;nan
13690;BME280;6917;52.194;9.894;2023-06-26T07:25:45;99995.91;;;25.77;nan
13690;BME280;6917;52.194;9.894;2023-06-26T07:28:13;100005.56;;;25.96;nan
13690;BME280;6917;52.194;9.894;2023-06-26T07:30:38;99999.38;;;25.85;nan
13690;BME280;6917;52.194;9.894;2023-06-26T07:33:05;100002.88;;;25.89;nan
13690;BME280;6917;52.194;9.894;2023-06-26T07:35:30;100003.31;;;25.88;nan
13690;BME280;6917;52.194;9.894;2023-06-26T07:37:56;100003.44;;;25.80;nan
13690;BME280;6917;52.194;9.894;2023-06-26T07:40:21;99993.66;;;25.92;nan
13690;BME280;6917;52.194;9.894;2023-06-26T07:42:49;100000.06;;;25.93;nan
13690;BME280;6917;52.194;9.894;2023-06-26T07:45:15;100002.63;;;26.03;nan
13690;BME280;6917;52.194;9.894;2023-06-26T07:47:41;100008.56;;;26.09;nan
13690;BME280;6917;52.194;9.894;2023-06-26T07:50:06;99998.22;;;26.06;nan
13690;BME280;6917;52.194;9.894;2023-06-26T07:52:32;99990.88;;;26.12;nan
13690;BME280;6917;52.194;9.894;2023-06-26T07:54:58;100011.72;;;26.31;nan
13690;BME280;6917;52.194;9.894;2023-06-26T07:57:23;99991.75;;;26.29;nan
13690;BME280;6917;52.194;9.894;2023-06-26T07:59:49;100004.78;;;26.19;nan
13690;BME280;6917;52.194;9.894;2023-06-26T08:02:15;100006.81;;;26.15;nan
13690;BME280;6917;52.194;9.894;2023-06-26T08:04:40;100006.81;;;26.15;nan
13690;BME280;6917;52.194;9.894;2023-06-26T08:07:05;100010.78;;;26.18;nan
13690;BME280;6917;52.194;9.894;2023-06-26T08:09:31;100007.84;;;26.25;nan
13690;BME280;6917;52.194;9.894;2023-06-26T08:11:57;100006.63;;;26.26;nan
13690;BME280;6917;52.194;9.894;2023-06-26T08:14:22;99999.09;;;26.23;nan
13690;BME280;6917;52.194;9.894;2023-06-26T08:16:48;99994.88;;;26.34;nan
13690;BME280;6917;52.194;9.894;2023-06-26T08:19:15;100001.50;;;26.44;nan
13690;BME280;6917;52.194;9.894;2023-06-26T08:21:41;99998.22;;;26.26;nan
13690;BME280;6917;52.194;9.894;2023-06-26T08:24:07;100002.97;;;26.29;nan
13690;BME280;6917;52.194;9.894;2023-06-26T08:26:34;100000.88;;;26.36;nan
13690;BME280;6917;52.194;9.894;2023-06-26T08:28:59;100001.28;;;26.35;nan
13690;BME280;6917;52.194;9.894;2023-06-26T08:31:24;99995.25;;;26.36;nan
13690;BME280;6917;52.194;9.894;2023-06-26T08:33:50;100006.31;;;26.44;nan
13690;BME280;6917;52.194;9.894;2023-06-26T08:36:15;99995.53;;;26.42;nan
13690;BME280;6917;52.194;9.894;2023-06-26T08:38:41;99988.88;;;26.56;nan
13690;BME280;6917;52.194;9.894;2023-06-26T08:41:07;99981.69;;;26.55;nan
13690;BME280;6917;52.194;9.894;2023-06-26T08:43:33;99977.09;;;26.64;nan
13690;BME280;6917;52.194;9.894;2023-06-26T08:45:59;99974.41;;;26.77;nan
13690;BME280;6917;52.194;9.894;2023-06-26T08:48:25;99987.69;;;26.93;nan
13690;BME280;6917;52.194;9.894;2023-06-26T08:50:53;99987.09;;;27.02;nan
13690;BME280;6917;52.194;9.894;2023-06-26T08:53:29;99984.53;;;26.91;nan
13690;BME280;6917;52.194;9.894;2023-06-26T08:55:57;99989.94;;;26.82;nan
13690;BME280;6917;52.194;9.894;2023-06-26T08:58:22;99984.94;;;26.89;nan
13690;BME280;6917;52.194;9.894;2023-06-26T09:00:48;99987.13;;;26.82;nan
13690;BME280;6917;52.194;9.894;2023-06-26T09:03:15;100000.34;;;27.01;nan
13690;BME280;6917;52.194;9.894;2023-06-26T09:05:40;100009.94;;;27.00;nan
13690;BME280;6917;52.194;9.894;2023-06-26T09:08:07;100008.59;;;26.88;nan
13690;BME280;6917;52.194;9.894;2023-06-26T09:10:32;100021.78;;;26.91;nan
13690;BME280;6917;52.194;9.894;2023-06-26T09:12:57;100030.44;;;26.97;nan
13690;BME280;6917;52.194;9.894;2023-06-26T09:15:24;100032.78;;;27.02;nan
13690;BME280;6917;52.194;9.894;2023-06-26T09:17:49;100034.13;;;26.94;nan
13690;BME280;6917;52.194;9.894;2023-06-26T09:20:15;100027.66;;;26.97;nan
13690;BME280;6917;52.194;9.894;2023-06-26T09:22:42;100042.25;;;26.88;nan
13690;BME280;6917;52.194;9.894;2023-06-26T09:25:09;100030.47;;;26.77;nan
13690;BME280;6917;52.194;9.894;2023-06-26T09:27:35;100032.41;;;26.80;nan
13690;BME280;6917;52.194;9.894;2023-06-26T09:30:03;100031.28;;;26.78;nan
13690;BME280;6917;52.194;9.894;2023-06-26T09:32:29;100028.09;;;26.76;nan
13690;BME280;6917;52.194;9.894;2023-06-26T09:34:54;100032.78;;;26.82;nan
13690;BME280;6917;52.194;9.894;2023-06-26T09:37:22;100039.44;;;26.88;nan
13690;BME280;6917;52.194;9.894;2023-06-26T09:39:48;100047.00;;;26.91;nan
13690;BME280;6917;52.194;9.894;2023-06-26T09:42:14;100041.66;;;26.97;nan
13690;BME280;6917;52.194;9.894;2023-06-26T09:44:47;100046.06;;;26.98;nan
13690;BME280;6917;52.194;9.894;2023-06-26T09:47:16;100050.16;;;27.13;nan
13690;BME280;6917;52.194;9.894;2023-06-26T09:49:43;100053.75;;;27.14;nan
13690;BME280;6917;52.194;9.894;2023-06-26T09:52:08;100053.75;;;26.94;nan
13690;BME280;6917;52.194;9.894;2023-06-26T09:54:34;100055.41;;;26.91;nan
13690;BME280;6917;52.194;9.894;2023-06-26T09:57:08;100057.13;;;27.05;nan
13690;BME280;6917;52.194;9.894;2023-06-26T09:59:34;100057.28;;;26.98;nan
13690;BME280;6917;52.194;9.894;2023-06-26T10:02:00;100073.53;;;26.87;nan
13690;BME280;6917;52.194;9.894;2023-06-26T10:04:26;100079.91;;;26.67;nan
13690;BME280;6917;52.194;9.894;2023-06-26T10:06:54;100088.25;;;26.51;nan
13690;BME280;6917;52.194;9.894;2023-06-26T10:09:21;100097.28;;;26.39;nan
13690;BME280;6917;52.194;9.894;2023-06-26T10:11:55;100100.63;;;26.03;nan
13690;BME280;6917;52.194;9.894;2023-06-26T10:14:22;100104.00;;;25.95;nan
13690;BME280;6917;52.194;9.894;2023-06-26T10:16:49;100105.97;;;25.71;nan
13690;BME280;6917;52.194;9.894;2023-06-26T10:19:19;100120.59;;;25.51;nan
13690;BME280;6917;52.194;9.894;2023-06-26T10:21:54;100118.28;;;25.46;nan
13690;BME280;6917;52.194;9.894;2023-06-26T10:24:22;100123.97;;;25.39;nan
13690;BME280;6917;52.194;9.894;2023-06-26T10:26:51;100129.63;;;25.36;nan
13690;BME280;6917;52.194;9.894;2023-06-26T10:29:18;100148.72;;;25.41;nan
13690;BME280;6917;52.194;9.894;2023-06-26T10:31:50;100136.06;;;25.33;nan
13690;BME280;6917;52.194;9.894;2023-06-26T10:34:16;100148.63;;;25.17;nan
13690;BME280;6917;52.194;9.894;2023-06-26T10:36:41;100158.94;;;25.24;nan
13690;BME280;6917;52.194;9.894;2023-06-26T10:39:07;100141.81;;;25.18;nan
13690;BME280;6917;52.194;9.894;2023-06-26T10:41:37;100143.31;;;25.27;nan
13690;BME280;6917;52.194;9.894;2023-06-26T10:46:51;100149.31;;;25.25;nan
13690;BME280;6917;52.194;9.894;2023-06-26T10:49:18;100167.53;;;25.06;nan
13690;BME280;6917;52.194;9.894;2023-06-26T10:51:48;100186.84;;;24.90;nan
13690;BME280;6917;52.194;9.894;2023-06-26T10:54:18;100210.38;;;24.51;nan
13690;BME280;6917;52.194;9.894;2023-06-26T10:59:21;100211.91;;;23.97;nan
13690;BME280;6917;52.194;9.894;2023-06-26T11:02:00;100210.53;;;23.60;nan
13690;BME280;6917;52.194;9.894;2023-06-26T11:04:44;100211.31;;;23.54;nan
13690;BME280;6917;52.194;9.894;2023-06-26T11:07:24;100223.34;;;23.33;nan
13690;BME280;6917;52.194;9.894;2023-06-26T11:10:08;100224.53;;;23.35;nan
13690;BME280;6917;52.194;9.894;2023-06-26T11:16:02;100218.88;;;23.53;nan
13690;BME280;6917;52.194;9.894;2023-06-26T11:18:28;100217.19;;;23.81;nan
13690;BME280;6917;52.194;9.894;2023-06-26T11:20:53;100220.78;;;23.81;nan
13690;BME280;6917;52.194;9.894;2023-06-26T11:23:22;100212.81;;;23.80;nan
13690;BME280;6917;52.194;9.894;2023-06-26T11:25:49;100213.31;;;23.64;nan
13690;BME280;6917;52.194;9.894;2023-06-26T11:28:15;100217.69;;;23.65;nan
13690;BME280;6917;52.194;9.894;2023-06-26T11:30:40;100218.84;;;23.67;nan
13690;BME280;6917;52.194;9.894;2023-06-26T11:33:12;100226.41;;;23.74;nan
13690;BME280;6917;52.194;9.894;2023-06-26T11:35:40;100233.22;;;23.66;nan
13690;BME280;6917;52.194;9.894;2023-06-26T11:38:06;100236.34;;;23.79;nan
13690;BME280;6917;52.194;9.894;2023-06-26T11:40:35;100242.34;;;23.70;nan
13690;BME280;6917;52.194;9.894;2023-06-26T11:43:02;100245.22;;;23.49;nan
13690;BME280;6917;52.194;9.894;2023-06-26T11:45:29;100249.63;;;23.39;nan
13690;BME280;6917;52.194;9.894;2023-06-26T11:47:58;100238.88;;;23.34;nan
13690;BME280;6917;52.194;9.894;2023-06-26T11:50:24;100252.78;;;23.48;nan
13690;BME280;6917;52.194;9.894;2023-06-26T11:52:57;100245.59;;;23.51;nan
13690;BME280;6917;52.194;9.894;2023-06-26T11:55:24;100251.56;;;23.63;nan
13690;BME280;6917;52.194;9.894;2023-06-26T11:57:52;100253.94;;;23.54;nan
13690;BME280;6917;52.194;9.894;2023-06-26T12:00:18;100258.69;;;23.71;nan
13690;BME280;6917;52.194;9.894;2023-06-26T12:02:47;100262.59;;;23.92;nan
13690;BME280;6917;52.194;9.894;2023-06-26T12:05:14;100258.47;;;24.18;nan
13690;BME280;6917;52.194;9.894;2023-06-26T12:07:42;100253.22;;;24.30;nan
13690;BME280;6917;52.194;9.894;2023-06-26T12:10:09;100262.69;;;24.47;nan
13690;BME280;6917;52.194;9.894;2023-06-26T12:12:35;100262.22;;;24.52;nan
13690;BME280;6917;52.194;9.894;2023-06-26T12:15:01;100270.13;;;24.65;nan
13690;BME280;6917;52.194;9.894;2023-06-26T12:17:27;100234.03;;;24.36;nan
13690;BME280;6917;52.194;9.894;2023-06-26T12:19:53;100239.31;;;24.20;nan
13690;BME280;6917;52.194;9.894;2023-06-26T12:22:18;100245.78;;;23.99;nan
13690;BME280;6917;52.194;9.894;2023-06-26T12:24:44;100254.97;;;24.03;nan
13690;BME280;6917;52.194;9.894;2023-06-26T12:27:14;100257.81;;;23.89;nan
13690;BME280;6917;52.194;9.894;2023-06-26T12:29:45;100250.31;;;23.71;nan
13690;BME280;6917;52.194;9.894;2023-06-26T12:32:10;100243.91;;;23.82;nan
13690;BME280;6917;52.194;9.894;2023-06-26T12:34:37;100242.91;;;24.17;nan
13690;BME280;6917;52.194;9.894;2023-06-26T12:37:10;100240.00;;;24.38;nan
13690;BME280;6917;52.194;9.894;2023-06-26T12:39:56;100235.16;;;24.46;nan
13690;BME280;6917;52.194;9.894;2023-06-26T12:42:23;100255.50;;;24.46;nan
13690;BME280;6917;52.194;9.894;2023-06-26T12:44:50;100238.41;;;24.37;nan
13690;BME280;6917;52.194;9.894;2023-06-26T12:47:16;100242.91;;;24.17;nan
13690;BME280;6917;52.194;9.894;2023-06-26T12:49:43;100259.88;;;24.44;nan
13690;BME280;6917;52.194;9.894;2023-06-26T12:52:14;100256.00;;;24.27;nan
13690;BME280;6917;52.194;9.894;2023-06-26T12:54:41;100264.78;;;24.32;nan
13690;BME280;6917;52.194;9.894;2023-06-26T12:57:07;100263.97;;;24.25;nan
13690;BME280;6917;52.194;9.894;2023-06-26T12:59:34;100263.34;;;23.96;nan
13690;BME280;6917;52.194;9.894;2023-06-26T13:01:59;100261.38;;;23.93;nan
13690;BME280;6917;52.194;9.894;2023-06-26T13:04:25;100259.41;;;23.86;nan
13690;BME280;6917;52.194;9.894;2023-06-26T13:06:51;100268.09;;;24.06;nan
13690;BME280;6917;52.194;9.894;2023-06-26T13:09:17;100262.78;;;24.29;nan
13690;BME280;6917;52.194;9.894;2023-06-26T13:11:43;100264.81;;;24.22;nan
13690;BME280;6917;52.194;9.894;2023-06-26T13:14:17;100268.25;;;24.44;nan
13690;BME280;6917;52.194;9.894;2023-06-26T13:16:46;100250.56;;;24.65;nan
13690;BME280;6917;52.194;9.894;2023-06-26T13:19:11;100225.84;;;24.63;nan
13690;BME280;6917;52.194;9.894;2023-06-26T13:21:36;100230.44;;;25.25;nan
13690;BME280;6917;52.194;9.894;2023-06-26T13:24:02;100211.44;;;25.43;nan
13690;BME280;6917;52.194;9.894;2023-06-26T13:26:31;100211.78;;;25.45;nan
13690;BME280;6917;52.194;9.894;2023-06-26T13:28:57;100205.47;;;25.41;nan
13690;BME280;6917;52.194;9.894;2023-06-26T13:31:22;100221.44;;;25.41;nan